San Martin de los Andes, Argentina
Current Conditions -  °F | °C
As of 1:00 PM on Thursday 30 Oct 2014 (Local Time) from SAZS Reporting Station
Rain Showers Rain Showers  
Wind Chill: 32°   Ceiling: Unl
Heat Index: 43°   Visibility: 5mi
Dew Point: 32°   Wind: 35mph
Humidity: 66%   Direction: 320°NW
Pressure: 29.83"   Gusts: 46mph
Location:  40.16°S, 71.36°W
Report Text: SAZS 301600Z 32030G40KT 8000 VCSH SCT020SCT030 06/00 Q1010
Loading
Personal Weather Stations






























Interactive Weather Map New forecast layout! Learn more

10-Day Weather Forecast

Advertisements
Track Severe Weather on mobile